Time;durP1;ratioP1;P1;durP2;ratioP2;P2;SDS_P1;SDS_P2;PMS_P1;PMS_P2;Temp;Humidity;BMP_temperature;BMP_pressure;BME280_temperature;BME280_humidity;BME280_pressure;Samples;Min_cycle;Max_cycle;Signal;HPM_P1;HPM_P2
2023/01/18 00:01:05;;;;;;;69.50;29.90;;;;;;;-1.06;100.00;96888.95;104561;1295;22682;-33
2023/01/18 00:03:32;;;;;;;72.00;31.50;;;;;;;-1.02;100.00;96882.50;104633;1295;22804;-30
2023/01/18 00:06:00;;;;;;;58.20;25.80;;;;;;;-0.99;100.00;96881.41;104556;1304;22663;-31
2023/01/18 00:08:26;;;;;;;84.30;33.40;;;;;;;-0.98;100.00;96880.39;104512;1295;25425;-35
2023/01/18 00:10:52;;;;;;;123.10;44.60;;;;;;;-0.93;100.00;96876.13;104476;1295;22562;-36
2023/01/18 00:13:21;;;;;;;108.20;43.10;;;;;;;-0.92;100.00;96879.90;104710;1291;22707;-29
2023/01/18 00:15:47;;;;;;;86.00;38.80;;;;;;;-0.92;100.00;96887.60;104493;1305;22954;-30
2023/01/18 00:18:12;;;;;;;135.70;64.00;;;;;;;-0.90;100.00;96893.53;104460;1295;23057;-30
2023/01/18 00:20:38;;;;;;;94.90;41.30;;;;;;;-0.88;100.00;96880.30;104477;1295;22647;-34
2023/01/18 00:23:04;;;;;;;103.10;44.60;;;;;;;-0.87;100.00;96874.39;104587;1298;24304;-35
2023/01/18 00:25:30;;;;;;;88.00;38.20;;;;;;;-0.89;100.00;96872.64;104672;1294;22782;-30
2023/01/18 00:27:56;;;;;;;69.60;28.10;;;;;;;-0.88;100.00;96868.72;104605;1296;22876;-30
2023/01/18 00:30:25;;;;;;;74.30;29.10;;;;;;;-0.90;100.00;96863.70;104609;1295;22782;-31
2023/01/18 00:32:52;;;;;;;82.50;31.90;;;;;;;-0.88;100.00;96857.27;104641;1292;22812;-35
2023/01/18 00:35:21;;;;;;;115.10;48.20;;;;;;;-0.81;100.00;96854.31;104578;1305;24352;-31
2023/01/18 00:38:19;;;;;;;100.70;40.10;;;;;;;-0.75;100.00;96855.96;104497;1305;22795;-29
2023/01/18 00:40:45;;;;;;;93.70;42.30;;;;;;;-0.73;100.00;96853.35;104663;1302;22569;-30
2023/01/18 00:45:41;;;;;;;60.20;24.40;;;;;;;-0.59;100.00;96855.88;104485;1291;24298;-30
2023/01/18 00:48:06;;;;;;;52.60;23.10;;;;;;;-0.47;100.00;96859.67;104509;1295;22964;-34
2023/01/18 00:50:32;;;;;;;49.40;22.20;;;;;;;-0.43;100.00;96856.34;104509;1296;22582;-36
2023/01/18 00:52:58;;;;;;;58.40;24.10;;;;;;;-0.40;100.00;96849.48;104547;1292;24721;-36
2023/01/18 00:55:24;;;;;;;67.30;29.60;;;;;;;-0.35;100.00;96849.39;104544;1305;23156;-33
2023/01/18 00:57:50;;;;;;;75.50;32.40;;;;;;;-0.28;100.00;96848.39;104501;1294;24116;-35
2023/01/18 01:00:17;;;;;;;83.20;35.70;;;;;;;-0.27;100.00;96846.33;104727;1301;24494;-35
2023/01/18 01:02:43;;;;;;;80.80;32.20;;;;;;;-0.25;100.00;96845.05;104506;1291;24412;-35
2023/01/18 01:07:48;;;;;;;73.40;33.50;;;;;;;-0.28;100.00;96845.08;104500;1291;23041;-30
2023/01/18 01:10:14;;;;;;;58.90;27.70;;;;;;;-0.25;100.00;96847.86;104457;1294;22680;-31
2023/01/18 01:27:37;;;;;;;65.90;25.80;;;;;;;-0.15;100.00;96821.21;104559;1305;23041;-32
2023/01/18 01:30:03;;;;;;;59.70;26.10;;;;;;;-0.11;100.00;96820.11;104379;1295;23095;-29
2023/01/18 01:32:28;;;;;;;64.30;25.30;;;;;;;-0.09;100.00;96819.23;104448;1305;24525;-36
2023/01/18 01:34:54;;;;;;;64.40;32.20;;;;;;;-0.10;100.00;96825.31;104512;1295;24385;-35
2023/01/18 01:37:20;;;;;;;82.70;42.10;;;;;;;-0.10;100.00;96830.02;104377;1292;24265;-34
2023/01/18 01:39:46;;;;;;;68.10;31.80;;;;;;;-0.09;100.00;96830.02;104474;1297;23174;-29
2023/01/18 01:42:11;;;;;;;62.80;29.60;;;;;;;-0.09;100.00;96825.33;104542;1298;22562;-35
2023/01/18 01:44:46;;;;;;;74.60;27.90;;;;;;;-0.06;100.00;96825.54;104504;1295;23455;-35
2023/01/18 01:47:31;;;;;;;68.90;25.40;;;;;;;-0.07;100.00;96822.21;104282;1293;22695;-30
2023/01/18 01:49:59;;;;;;;71.40;30.60;;;;;;;-0.07;100.00;96821.23;104508;1295;23051;-30
2023/01/18 01:52:28;;;;;;;62.30;23.00;;;;;;;-0.11;100.00;96817.11;104547;1299;22660;-30
2023/01/18 01:55:00;;;;;;;50.30;23.40;;;;;;;-0.14;100.00;96807.31;104527;1294;24323;-33
2023/01/18 01:57:30;;;;;;;51.90;21.10;;;;;;;-0.12;100.00;96805.98;104506;1305;25450;-31
2023/01/18 02:00:04;;;;;;;50.70;21.70;;;;;;;-0.16;100.00;96807.44;104512;1305;23038;-36
2023/01/18 02:02:30;;;;;;;67.10;23.40;;;;;;;-0.16;100.00;96807.98;104590;1290;22695;-30
2023/01/18 02:04:56;;;;;;;54.80;23.50;;;;;;;-0.19;100.00;96807.96;104521;1295;24510;-31
2023/01/18 02:07:22;;;;;;;60.50;27.20;;;;;;;-0.19;100.00;96810.04;104436;1295;24502;-35
2023/01/18 02:09:49;;;;;;;60.30;23.90;;;;;;;-0.24;100.00;96812.83;104519;1305;23029;-34
2023/01/18 02:12:15;;;;;;;52.80;25.50;;;;;;;-0.29;100.00;96815.52;104547;1290;25307;-31
2023/01/18 02:14:40;;;;;;;51.10;21.70;;;;;;;-0.33;100.00;96821.13;104615;1295;23099;-36
2023/01/18 02:17:27;;;;;;;55.90;24.30;;;;;;;-0.32;100.00;96821.38;104655;1295;22629;-29
2023/01/18 02:20:18;;;;;;;59.20;26.00;;;;;;;-0.31;100.00;96818.79;104539;1295;23041;-33
2023/01/18 02:23:12;;;;;;;54.90;25.10;;;;;;;-0.32;100.00;96816.30;104536;1295;24430;-34
2023/01/18 02:25:57;;;;;;;196.70;82.40;;;;;;;-0.32;100.00;96818.55;104479;1305;22826;-36
2023/01/18 02:28:36;;;;;;;448.60;243.20;;;;;;;-0.34;100.00;96827.00;104442;1305;22568;-33
2023/01/18 02:31:22;;;;;;;248.00;122.60;;;;;;;-0.30;100.00;96830.64;104475;1295;22572;-36
2023/01/18 02:33:54;;;;;;;334.60;184.50;;;;;;;-0.26;100.00;96837.52;104533;1295;22801;-31
2023/01/18 02:36:28;;;;;;;137.60;64.40;;;;;;;-0.26;100.00;96837.65;104489;1305;26074;-35
2023/01/18 02:38:55;;;;;;;159.10;70.20;;;;;;;-0.25;100.00;96838.36;104513;1295;22897;-31
2023/01/18 02:46:29;;;;;;;273.80;135.40;;;;;;;-0.21;100.00;96836.33;104564;1305;22711;-37
2023/01/18 02:46:45;;;;;;;80.90;37.00;;;;;;;-0.14;100.00;96835.80;104496;1295;23143;-30
2023/01/18 02:49:18;;;;;;;86.60;30.40;;;;;;;-0.05;100.00;96841.34;104650;1305;22788;-35
2023/01/18 02:51:43;;;;;;;75.30;28.70;;;;;;;0.03;100.00;96845.38;104533;1301;24548;-31
2023/01/18 02:54:09;;;;;;;97.10;33.40;;;;;;;0.07;100.00;96841.30;104443;1295;24295;-35
2023/01/18 02:56:40;;;;;;;64.40;28.90;;;;;;;0.11;100.00;96843.80;104523;1298;22722;-38
2023/01/18 02:59:20;;;;;;;62.90;28.40;;;;;;;0.13;100.00;96841.98;104525;1305;23167;-31
2023/01/18 03:02:05;;;;;;;64.30;29.60;;;;;;;0.16;100.00;96843.27;104521;1305;24421;-36
2023/01/18 03:04:44;;;;;;;80.30;37.90;;;;;;;0.21;100.00;96843.50;104502;1295;24196;-31
2023/01/18 03:07:17;;;;;;;109.10;64.00;;;;;;;0.17;100.00;96837.59;104589;1298;22565;-32
2023/01/18 03:09:43;;;;;;;58.20;26.10;;;;;;;0.12;100.00;96833.06;104533;1295;24413;-37
2023/01/18 03:12:22;;;;;;;64.00;32.10;;;;;;;0.10;100.00;96823.17;104559;1305;22796;-34
2023/01/18 03:15:11;;;;;;;76.70;30.60;;;;;;;0.04;100.00;96815.46;104562;1295;22561;-37
2023/01/18 03:17:42;;;;;;;56.90;28.10;;;;;;;-0.04;100.00;96812.73;104541;1295;24301;-31
2023/01/18 03:20:10;;;;;;;74.20;28.20;;;;;;;-0.08;100.00;96810.59;104563;1295;23162;-38
2023/01/18 03:25:33;;;;;;;62.60;33.60;;;;;;;-0.16;100.00;96821.86;104470;1295;23070;-35
2023/01/18 03:35:32;;;;;;;109.90;48.70;;;;;;;-0.15;100.00;96832.30;104585;1292;25311;-33
2023/01/18 03:37:58;;;;;;;77.20;28.50;;;;;;;-0.14;100.00;96832.80;104587;1305;24271;-37
2023/01/18 03:40:26;;;;;;;73.50;41.40;;;;;;;-0.13;100.00;96826.52;104608;1282;22759;-32
2023/01/18 03:43:13;;;;;;;53.80;25.30;;;;;;;-0.12;100.00;96820.27;104682;1305;24385;-36
2023/01/18 03:45:52;;;;;;;68.30;33.80;;;;;;;-0.11;100.00;96820.67;104523;1301;24266;-34
2023/01/18 03:48:18;;;;;;;100.40;41.90;;;;;;;-0.11;100.00;96820.06;104591;1295;22819;-33
2023/01/18 03:50:49;;;;;;;57.00;24.50;;;;;;;-0.10;100.00;96821.94;104434;1296;24302;-37
2023/01/18 03:53:22;;;;;;;61.10;29.20;;;;;;;-0.06;100.00;96823.23;104492;1301;23282;-34
2023/01/18 03:55:50;;;;;;;49.90;23.30;;;;;;;-0.06;100.00;96819.82;104558;1295;22795;-33
2023/01/18 03:58:18;;;;;;;62.50;26.80;;;;;;;-0.04;100.00;96814.44;104547;1305;24378;-38
2023/01/18 04:00:44;;;;;;;44.20;21.40;;;;;;;-0.01;100.00;96813.61;104589;1295;22687;-34
2023/01/18 04:03:10;;;;;;;57.90;22.60;;;;;;;0.01;100.00;96811.45;104567;1295;22593;-37
2023/01/18 04:05:36;;;;;;;43.90;19.10;;;;;;;0.01;100.00;96808.47;104497;1295;24321;-33
2023/01/18 04:08:02;;;;;;;54.70;27.90;;;;;;;0.02;100.00;96807.49;104467;1305;23041;-37
2023/01/18 04:10:28;;;;;;;57.60;25.10;;;;;;;0.06;100.00;96801.64;104475;1305;23028;-33
2023/01/18 04:12:53;;;;;;;39.10;21.30;;;;;;;0.09;100.00;96797.09;104485;1295;24413;-36
2023/01/18 04:15:19;;;;;;;47.10;23.60;;;;;;;0.13;100.00;96794.08;104502;1305;22899;-37
2023/01/18 04:17:48;;;;;;;48.30;23.80;;;;;;;0.16;100.00;96787.19;104502;1295;22740;-37
2023/01/18 04:20:14;;;;;;;49.30;22.20;;;;;;;0.17;100.00;96776.45;104515;1305;22673;-37
2023/01/18 04:22:40;;;;;;;38.00;20.10;;;;;;;0.18;100.00;96768.58;104518;1290;23340;-37
2023/01/18 04:25:06;;;;;;;53.50;19.80;;;;;;;0.19;100.00;96757.81;104512;1291;24385;-34
2023/01/18 04:27:32;;;;;;;36.00;14.70;;;;;;;0.15;100.00;96756.16;104579;1294;24304;-33
2023/01/18 04:29:58;;;;;;;33.20;13.50;;;;;;;0.13;100.00;96752.19;104535;1295;24446;-33
2023/01/18 04:32:23;;;;;;;33.40;15.20;;;;;;;0.16;100.00;96755.66;104552;1295;23050;-42
2023/01/18 04:34:49;;;;;;;46.80;13.00;;;;;;;0.16;100.00;96777.48;104522;1305;24387;-33
2023/01/18 04:37:15;;;;;;;35.60;16.90;;;;;;;0.17;100.00;96810.14;104529;1294;24419;-37
2023/01/18 05:16:46;;;;;;;29.30;16.60;;;;;;;-102.45;19.20;19363.39;101539;1305;1544707;-33
2023/01/18 05:19:12;;;;;;;30.10;15.90;;;;;;;-128.00;-1.00;-1.00;100868;1288;1002521;-36
2023/01/18 05:21:37;;;;;;;33.70;15.60;;;;;;;-128.00;-1.00;-1.00;101293;1304;1005352;-34
2023/01/18 05:24:03;;;;;;;28.00;15.20;;;;;;;-128.00;-1.00;-1.00;101157;1282;1003301;-38
2023/01/18 05:26:29;;;;;;;27.10;13.80;;;;;;;-128.00;-1.00;-1.00;101174;1304;1002936;-33
2023/01/18 05:28:55;;;;;;;32.10;16.30;;;;;;;-128.00;-1.00;-1.00;101112;1304;1003303;-31
2023/01/18 05:31:22;;;;;;;39.10;18.50;;;;;;;-128.00;-1.00;-1.00;101133;1304;1005074;-35
2023/01/18 05:33:47;;;;;;;35.20;16.70;;;;;;;-128.00;-1.00;-1.00;101194;1304;1003994;-37
2023/01/18 05:36:13;;;;;;;29.40;15.20;;;;;;;-128.00;-1.00;-1.00;101242;1304;1004433;-32
2023/01/18 05:38:39;;;;;;;28.00;13.30;;;;;;;-128.00;-1.00;-1.00;101287;1304;1004228;-35
2023/01/18 05:41:05;;;;;;;30.80;13.20;;;;;;;-128.00;-1.00;-1.00;101252;1304;1003999;-36
2023/01/18 05:43:31;;;;;;;35.00;17.90;;;;;;;-128.00;-1.00;-1.00;101199;1304;1004239;-33
2023/01/18 05:45:57;;;;;;;36.70;15.30;;;;;;;-128.00;-1.00;-1.00;101254;1304;1003378;-33
2023/01/18 05:48:23;;;;;;;32.60;14.90;;;;;;;-128.00;-1.00;-1.00;101167;1304;1004603;-35
2023/01/18 05:50:48;;;;;;;24.60;12.30;;;;;;;-128.00;-1.00;-1.00;101157;1304;1003364;-33
2023/01/18 05:53:16;;;;;;;32.40;17.50;;;;;;;-128.00;-1.00;-1.00;101046;1304;1004030;-33
2023/01/18 05:55:42;;;;;;;54.80;21.50;;;;;;;-128.00;-1.00;-1.00;101162;1304;1003532;-39
2023/01/18 05:58:08;;;;;;;39.80;18.50;;;;;;;-128.00;-1.00;-1.00;101122;1304;1002764;-36
2023/01/18 06:00:34;;;;;;;43.80;16.80;;;;;;;-128.00;-1.00;-1.00;101208;1304;1004896;-35
2023/01/18 06:03:00;;;;;;;27.20;13.70;;;;;;;-128.00;-1.00;-1.00;101095;1304;1003169;-34
2023/01/18 06:05:27;;;;;;;49.10;20.70;;;;;;;-128.00;-1.00;-1.00;101264;1304;1004465;-33
2023/01/18 06:07:52;;;;;;;39.70;16.10;;;;;;;-128.00;-1.00;-1.00;101242;1304;1003002;-36
2023/01/18 06:10:18;;;;;;;36.70;14.70;;;;;;;-128.00;-1.00;-1.00;101230;1304;1002228;-34
2023/01/18 06:12:44;;;;;;;32.20;15.60;;;;;;;-128.00;-1.00;-1.00;101133;1304;1003411;-34
2023/01/18 06:15:10;;;;;;;29.80;15.20;;;;;;;-128.00;-1.00;-1.00;101188;1304;1003587;-35
2023/01/18 06:17:36;;;;;;;36.20;17.10;;;;;;;-128.00;-1.00;-1.00;101100;1304;1003092;-35
2023/01/18 06:20:03;;;;;;;43.20;17.90;;;;;;;-128.00;-1.00;-1.00;101155;1304;1004911;-35
2023/01/18 06:22:29;;;;;;;42.30;16.90;;;;;;;-128.00;-1.00;-1.00;101122;1304;1004389;-33
2023/01/18 06:24:55;;;;;;;58.90;23.80;;;;;;;-128.00;-1.00;-1.00;101145;1304;1003482;-33
2023/01/18 06:27:21;;;;;;;66.30;27.20;;;;;;;-128.00;-1.00;-1.00;101142;1304;1002697;-36
2023/01/18 06:29:46;;;;;;;61.30;22.70;;;;;;;-128.00;-1.00;-1.00;101096;1304;1003401;-35
2023/01/18 06:32:12;;;;;;;55.40;22.70;;;;;;;-128.00;-1.00;-1.00;101074;1304;1003305;-34
2023/01/18 06:34:38;;;;;;;55.60;22.40;;;;;;;-128.00;-1.00;-1.00;101241;1304;1004204;-33
2023/01/18 06:37:04;;;;;;;57.10;22.90;;;;;;;-128.00;-1.00;-1.00;101337;1304;1004630;-36
2023/01/18 06:39:30;;;;;;;64.10;26.30;;;;;;;-128.00;-1.00;-1.00;101179;1304;1004425;-34
2023/01/18 06:41:56;;;;;;;61.90;21.00;;;;;;;-128.00;-1.00;-1.00;101204;1304;1004533;-37
2023/01/18 06:44:21;;;;;;;46.90;20.50;;;;;;;-128.00;-1.00;-1.00;101209;1304;1003855;-35
2023/01/18 06:46:47;;;;;;;39.80;18.30;;;;;;;-128.00;-1.00;-1.00;101171;1304;1004223;-33
2023/01/18 06:49:13;;;;;;;37.50;17.80;;;;;;;-128.00;-1.00;-1.00;101230;1304;1003014;-36
2023/01/18 06:51:39;;;;;;;39.70;18.70;;;;;;;-128.00;-1.00;-1.00;101103;1304;1003679;-36
2023/01/18 06:54:05;;;;;;;83.90;29.50;;;;;;;-128.00;-1.00;-1.00;101122;1304;1003421;-34
2023/01/18 06:56:31;;;;;;;65.80;27.50;;;;;;;-128.00;-1.00;-1.00;101129;1304;1003961;-36
2023/01/18 06:58:59;;;;;;;53.30;20.60;;;;;;;-128.00;-1.00;-1.00;101127;1304;1003428;-36
2023/01/18 07:01:25;;;;;;;42.90;19.00;;;;;;;-128.00;-1.00;-1.00;101099;1304;1002859;-36
2023/01/18 07:03:51;;;;;;;48.30;20.80;;;;;;;-128.00;-1.00;-1.00;101096;1304;1002982;-33
2023/01/18 07:06:17;;;;;;;50.40;19.40;;;;;;;-128.00;-1.00;-1.00;101107;1304;1003066;-34
2023/01/18 07:08:43;;;;;;;50.50;20.40;;;;;;;-128.00;-1.00;-1.00;101237;1304;1003427;-34
2023/01/18 07:11:10;;;;;;;53.00;20.70;;;;;;;-128.00;-1.00;-1.00;101058;1304;1003105;-35
2023/01/18 07:13:39;;;;;;;52.60;20.70;;;;;;;-128.00;-1.00;-1.00;101209;1304;1003667;-33
2023/01/18 07:16:06;;;;;;;46.10;21.90;;;;;;;-128.00;-1.00;-1.00;101110;1304;1003638;-36
2023/01/18 07:18:32;;;;;;;50.90;20.90;;;;;;;-128.00;-1.00;-1.00;101171;1304;1003495;-36
2023/01/18 07:20:59;;;;;;;40.30;18.50;;;;;;;-128.00;-1.00;-1.00;101237;1304;1004333;-33
2023/01/18 07:23:26;;;;;;;39.00;16.60;;;;;;;-128.00;-1.00;-1.00;101243;1304;1002549;-35
2023/01/18 07:25:59;;;;;;;41.80;19.90;;;;;;;-128.00;-1.00;-1.00;101115;1304;1003213;-34
2023/01/18 07:28:25;;;;;;;48.90;18.40;;;;;;;-128.00;-1.00;-1.00;101159;1304;1003204;-37
2023/01/18 07:30:51;;;;;;;46.70;23.00;;;;;;;-128.00;-1.00;-1.00;101067;1304;1003684;-35
2023/01/18 07:33:17;;;;;;;58.90;25.20;;;;;;;-128.00;-1.00;-1.00;101226;1304;1004565;-41
2023/01/18 07:35:42;;;;;;;44.40;21.60;;;;;;;-128.00;-1.00;-1.00;101135;1304;1004477;-37
2023/01/18 07:38:08;;;;;;;57.30;24.40;;;;;;;-128.00;-1.00;-1.00;101141;1304;1003390;-37
2023/01/18 07:40:34;;;;;;;57.40;24.70;;;;;;;-128.00;-1.00;-1.00;101095;1304;1004376;-34
2023/01/18 07:43:01;;;;;;;50.80;22.50;;;;;;;-128.00;-1.00;-1.00;101195;1304;1003740;-34
2023/01/18 07:45:27;;;;;;;44.80;19.80;;;;;;;-128.00;-1.00;-1.00;101271;1304;1003022;-34
2023/01/18 07:47:53;;;;;;;41.00;18.00;;;;;;;-128.00;-1.00;-1.00;101320;1304;1003281;-35
2023/01/18 07:50:21;;;;;;;50.60;22.60;;;;;;;-128.00;-1.00;-1.00;101139;1304;1003855;-34
2023/01/18 07:52:47;;;;;;;37.20;19.00;;;;;;;-128.00;-1.00;-1.00;101062;1304;1004141;-37
2023/01/18 07:55:12;;;;;;;41.70;22.50;;;;;;;-128.00;-1.00;-1.00;101142;1304;1003335;-35
2023/01/18 07:57:38;;;;;;;44.00;19.50;;;;;;;-128.00;-1.00;-1.00;101224;1282;1003565;-37
2023/01/18 08:00:08;;;;;;;45.70;20.40;;;;;;;-128.00;-1.00;-1.00;101150;1304;1003689;-35
2023/01/18 08:02:34;;;;;;;49.30;24.90;;;;;;;-128.00;-1.00;-1.00;101192;1304;1002647;-37
2023/01/18 08:05:00;;;;;;;48.00;22.90;;;;;;;-128.00;-1.00;-1.00;101216;1304;1003142;-37
2023/01/18 08:07:27;;;;;;;44.60;20.30;;;;;;;-128.00;-1.00;-1.00;101183;1301;1003293;-35
2023/01/18 08:09:53;;;;;;;35.40;17.20;;;;;;;-128.00;-1.00;-1.00;101191;1301;1003112;-35
2023/01/18 08:12:19;;;;;;;42.10;19.50;;;;;;;-128.00;-1.00;-1.00;101181;1304;1003761;-37
2023/01/18 08:14:45;;;;;;;45.90;19.50;;;;;;;-128.00;-1.00;-1.00;101250;1304;1004339;-36
2023/01/18 08:17:11;;;;;;;43.40;17.80;;;;;;;-128.00;-1.00;-1.00;101091;1282;1002998;-38
2023/01/18 08:19:37;;;;;;;33.70;16.90;;;;;;;-128.00;-1.00;-1.00;101151;1304;1002769;-35
2023/01/18 08:22:02;;;;;;;34.20;16.00;;;;;;;-128.00;-1.00;-1.00;101093;1304;1004687;-34
2023/01/18 08:24:28;;;;;;;36.20;17.00;;;;;;;-128.00;-1.00;-1.00;101186;1304;1002807;-39
2023/01/18 08:26:54;;;;;;;72.20;30.90;;;;;;;-128.00;-1.00;-1.00;101214;1304;1003710;-37
2023/01/18 08:29:20;;;;;;;78.00;33.90;;;;;;;-128.00;-1.00;-1.00;101140;1304;1002805;-37
2023/01/18 08:31:51;;;;;;;60.80;25.10;;;;;;;-128.00;-1.00;-1.00;101196;1304;1003165;-35
2023/01/18 08:34:17;;;;;;;68.30;30.90;;;;;;;-128.00;-1.00;-1.00;101184;1301;1003692;-34
2023/01/18 08:36:42;;;;;;;106.40;47.60;;;;;;;-128.00;-1.00;-1.00;101168;1304;1005151;-37
2023/01/18 08:39:08;;;;;;;106.70;48.40;;;;;;;-128.00;-1.00;-1.00;101056;1304;1003992;-37
2023/01/18 08:41:35;;;;;;;141.90;58.20;;;;;;;-128.00;-1.00;-1.00;101106;1304;1003160;-34
2023/01/18 08:44:01;;;;;;;118.50;46.30;;;;;;;-128.00;-1.00;-1.00;101048;1304;1003827;-37
2023/01/18 08:46:27;;;;;;;92.00;39.60;;;;;;;-128.00;-1.00;-1.00;101136;1304;1004009;-39
2023/01/18 08:48:54;;;;;;;75.60;32.80;;;;;;;-128.00;-1.00;-1.00;101218;1304;1003074;-33
2023/01/18 08:51:21;;;;;;;45.00;22.20;;;;;;;-128.00;-1.00;-1.00;101234;1304;1003382;-36
2023/01/18 08:53:50;;;;;;;54.30;21.80;;;;;;;-128.00;-1.00;-1.00;101129;1304;1004254;-33
2023/01/18 08:56:17;;;;;;;44.90;19.50;;;;;;;-128.00;-1.00;-1.00;101135;1304;1004627;-36
2023/01/18 08:58:42;;;;;;;55.90;22.40;;;;;;;-128.00;-1.00;-1.00;101279;1304;1003323;-35
2023/01/18 09:01:08;;;;;;;41.50;19.70;;;;;;;-128.00;-1.00;-1.00;101121;1304;1003095;-36
2023/01/18 09:03:35;;;;;;;42.90;20.90;;;;;;;-128.00;-1.00;-1.00;101177;1304;1003167;-33
2023/01/18 09:06:01;;;;;;;40.90;23.30;;;;;;;-128.00;-1.00;-1.00;101218;1304;1003686;-34
2023/01/18 09:08:27;;;;;;;36.60;19.10;;;;;;;-128.00;-1.00;-1.00;101084;1304;1004045;-37
2023/01/18 09:10:53;;;;;;;42.40;20.20;;;;;;;-128.00;-1.00;-1.00;101154;1304;1003039;-34
2023/01/18 09:13:19;;;;;;;42.40;20.60;;;;;;;-128.00;-1.00;-1.00;101214;1304;1003161;-34
2023/01/18 09:15:48;;;;;;;48.80;22.50;;;;;;;-128.00;-1.00;-1.00;101111;1304;1003082;-36
2023/01/18 09:18:14;;;;;;;37.40;18.50;;;;;;;-128.00;-1.00;-1.00;101139;1304;1003249;-34
2023/01/18 09:20:42;;;;;;;35.90;15.30;;;;;;;-128.00;-1.00;-1.00;101119;1304;1003430;-36
2023/01/18 09:23:08;;;;;;;42.00;19.90;;;;;;;-128.00;-1.00;-1.00;101296;1304;1002617;-36
2023/01/18 09:25:35;;;;;;;40.00;18.40;;;;;;;-128.00;-1.00;-1.00;101118;1304;1003110;-36
2023/01/18 09:28:04;;;;;;;47.90;22.00;;;;;;;-128.00;-1.00;-1.00;101295;1304;1003418;-36
2023/01/18 09:30:30;;;;;;;35.20;17.90;;;;;;;-128.00;-1.00;-1.00;101224;1304;1003877;-37
2023/01/18 09:32:56;;;;;;;36.00;18.40;;;;;;;-128.00;-1.00;-1.00;101218;1304;1003817;-35
2023/01/18 09:35:22;;;;;;;36.50;18.10;;;;;;;-128.00;-1.00;-1.00;101277;1304;1004154;-35
2023/01/18 09:37:48;;;;;;;27.00;14.80;;;;;;;-128.00;-1.00;-1.00;101161;1304;1003449;-33
2023/01/18 09:40:19;;;;;;;27.50;15.60;;;;;;;-128.00;-1.00;-1.00;101302;1304;1003172;-35
2023/01/18 09:42:45;;;;;;;32.60;15.70;;;;;;;-128.00;-1.00;-1.00;101172;1304;1003248;-33
2023/01/18 09:45:26;;;;;;;39.90;19.00;;;;;;;-128.00;-1.00;-1.00;101158;1304;1002577;-35
2023/01/18 09:47:54;;;;;;;32.40;17.30;;;;;;;-128.00;-1.00;-1.00;101073;1304;1003395;-36
2023/01/18 09:50:20;;;;;;;38.30;19.20;;;;;;;-128.00;-1.00;-1.00;101229;1298;1002501;-33
2023/01/18 09:53:10;;;;;;;53.20;23.20;;;;;;;-128.00;-1.00;-1.00;101164;1304;1003567;-35
2023/01/18 09:55:53;;;;;;;44.30;21.80;;;;;;;-128.00;-1.00;-1.00;101223;1304;1004599;-37
2023/01/18 09:58:52;;;;;;;45.30;20.90;;;;;;;-128.00;-1.00;-1.00;101323;1304;1004454;-36
2023/01/18 10:01:20;;;;;;;53.40;23.10;;;;;;;-128.00;-1.00;-1.00;101180;1304;1004684;-33
2023/01/18 10:03:54;;;;;;;39.10;18.70;;;;;;;-128.00;-1.00;-1.00;101252;1304;1005269;-37
2023/01/18 10:06:26;;;;;;;38.50;21.50;;;;;;;-128.00;-1.00;-1.00;101260;1304;1004201;-36
2023/01/18 10:08:56;;;;;;;38.80;16.50;;;;;;;-128.00;-1.00;-1.00;101091;1304;1003603;-34
2023/01/18 10:11:36;;;;;;;37.40;17.70;;;;;;;-128.00;-1.00;-1.00;101173;1304;1002863;-37
2023/01/18 10:14:05;;;;;;;50.80;22.30;;;;;;;-128.00;-1.00;-1.00;101347;1304;1003398;-37
2023/01/18 10:16:33;;;;;;;49.20;23.20;;;;;;;-128.00;-1.00;-1.00;101248;1304;1004691;-33
2023/01/18 10:19:00;;;;;;;45.10;18.90;;;;;;;-128.00;-1.00;-1.00;101153;1298;1002987;-34
2023/01/18 10:21:46;;;;;;;42.50;20.10;;;;;;;-128.00;-1.00;-1.00;101169;1298;1003015;-33
2023/01/18 10:24:33;;;;;;;53.50;22.20;;;;;;;-128.00;-1.00;-1.00;101241;1283;1003003;-36
2023/01/18 10:27:23;;;;;;;63.60;26.80;;;;;;;-128.00;-1.00;-1.00;101154;1304;1003875;-36
2023/01/18 10:29:59;;;;;;;36.10;18.80;;;;;;;-128.00;-1.00;-1.00;101178;1304;1003891;-34
2023/01/18 10:32:25;;;;;;;46.80;23.10;;;;;;;-128.00;-1.00;-1.00;101230;1301;1003230;-33
2023/01/18 10:34:51;;;;;;;43.40;17.70;;;;;;;-128.00;-1.00;-1.00;101186;1304;1003654;-33
2023/01/18 10:37:39;;;;;;;39.00;19.10;;;;;;;-128.00;-1.00;-1.00;101156;1304;1005029;-36
2023/01/18 10:40:08;;;;;;;53.00;21.90;;;;;;;-128.00;-1.00;-1.00;101081;1304;1003571;-36
2023/01/18 10:42:46;;;;;;;36.20;18.50;;;;;;;-128.00;-1.00;-1.00;101222;1301;1003111;-36
2023/01/18 10:45:20;;;;;;;52.50;23.00;;;;;;;-128.00;-1.00;-1.00;101281;1304;1002508;-36
2023/01/18 10:47:46;;;;;;;;;;;;;;;-128.00;-1.00;-1.00;101042;1304;1003339;-33
2023/01/18 10:50:17;;;;;;;41.70;20.80;;;;;;;-128.00;-1.00;-1.00;101138;1304;1003134;-34
2023/01/18 10:52:44;;;;;;;42.10;21.60;;;;;;;-128.00;-1.00;-1.00;101194;1304;1003208;-36
2023/01/18 10:55:15;;;;;;;47.60;23.40;;;;;;;-128.00;-1.00;-1.00;101230;1304;1002952;-33
2023/01/18 10:57:44;;;;;;;36.00;17.90;;;;;;;-128.00;-1.00;-1.00;101114;1304;1004284;-33
2023/01/18 11:00:25;;;;;;;35.50;18.60;;;;;;;-128.00;-1.00;-1.00;101088;1304;1004424;-34
2023/01/18 11:02:51;;;;;;;40.80;19.50;;;;;;;-128.00;-1.00;-1.00;101143;1304;1003644;-36
2023/01/18 11:05:29;;;;;;;50.30;22.80;;;;;;;-128.00;-1.00;-1.00;101206;1304;1002773;-35
2023/01/18 11:46:07;;;;;;;40.90;23.00;;;;;;;0.94;100.00;96959.33;104643;1295;557386;-33
2023/01/18 11:48:50;;;;;;;36.90;19.50;;;;;;;1.00;100.00;96950.35;104614;1297;500912;-36
2023/01/18 11:51:23;;;;;;;46.60;20.50;;;;;;;1.12;100.00;96954.73;105111;1298;22789;-35
2023/01/18 11:54:09;;;;;;;45.30;19.50;;;;;;;1.04;100.00;96947.08;105039;1301;25431;-35
2023/01/18 11:56:46;;;;;;;62.00;23.70;;;;;;;1.04;100.00;96945.69;105194;1301;22570;-33
2023/01/18 11:59:14;;;;;;;21.00;11.40;;;;;;;1.16;100.00;96947.65;104999;1298;22784;-38
2023/01/18 12:02:03;;;;;;;45.50;18.60;;;;;;;1.08;100.00;96945.39;104921;1298;22661;-36
2023/01/18 12:04:42;;;;;;;43.80;18.70;;;;;;;0.97;100.00;96946.55;105123;1301;22578;-37
2023/01/18 12:07:31;;;;;;;54.10;25.20;;;;;;;1.00;100.00;96949.95;105029;1298;23172;-34
2023/01/18 12:09:59;;;;;;;61.90;25.50;;;;;;;0.91;100.00;96948.93;105176;1299;22648;-34
2023/01/18 12:12:42;;;;;;;51.00;22.20;;;;;;;-24.84;79.80;77566.13;104486;1301;1002765;-38
2023/01/18 12:15:24;;;;;;;46.10;23.20;;;;;;;-128.00;-1.00;-1.00;100762;1301;1003001;-39
2023/01/18 12:18:06;;;;;;;39.30;20.10;;;;;;;-128.00;-1.00;-1.00;101484;1301;1002942;-34
2023/01/18 12:20:49;;;;;;;50.30;22.20;;;;;;;-128.00;-1.00;-1.00;101436;1301;1003032;-33
2023/01/18 12:23:39;;;;;;;44.30;20.80;;;;;;;-128.00;-1.00;-1.00;101544;1301;1003840;-34
2023/01/18 12:26:22;;;;;;;50.50;19.40;;;;;;;-128.00;-1.00;-1.00;100731;1301;1003497;-37
2023/01/18 12:29:22;;;;;;;54.80;24.80;;;;;;;-128.00;-1.00;-1.00;101112;1301;1003243;-37
2023/01/18 12:32:02;;;;;;;46.40;21.80;;;;;;;-128.00;-1.00;-1.00;100835;1301;1003071;-34
2023/01/18 12:34:54;;;;;;;49.70;26.80;;;;;;;-128.00;-1.00;-1.00;100745;1301;1002900;-34
2023/01/18 12:37:39;;;;;;;57.60;25.20;;;;;;;-128.00;-1.00;-1.00;101497;1301;1005086;-34
2023/01/18 12:40:15;;;;;;;46.60;20.40;;;;;;;-128.00;-1.00;-1.00;100761;1298;1002632;-34
2023/01/18 12:42:58;;;;;;;47.10;21.20;;;;;;;-128.00;-1.00;-1.00;97857;1301;1003173;-35
2023/01/18 12:45:36;;;;;;;56.30;23.30;;;;;;;-128.00;-1.00;-1.00;92703;1301;1003290;-38
2023/01/18 12:48:28;;;;;;;33.10;16.30;;;;;;;-128.00;-1.00;-1.00;101427;1298;1003105;-35
2023/01/18 12:50:55;;;;;;;31.80;16.30;;;;;;;-128.00;-1.00;-1.00;99970;1301;1004362;-36
2023/01/18 12:53:40;;;;;;;43.70;17.50;;;;;;;-128.00;-1.00;-1.00;99136;1301;1003210;-33
2023/01/18 12:56:26;;;;;;;52.00;23.80;;;;;;;-128.00;-1.00;-1.00;100018;1301;1005558;-39
2023/01/18 12:58:55;;;;;;;66.20;27.30;;;;;;;-128.00;-1.00;-1.00;96452;1301;1004386;-34
2023/01/18 13:01:20;;;;;;;65.80;25.70;;;;;;;-128.00;-1.00;-1.00;99393;1301;1005058;-38
2023/01/18 13:03:47;;;;;;;47.50;20.60;;;;;;;-128.00;-1.00;-1.00;95651;1301;1003836;-36